CST,Max TemperatureF,Mean TemperatureF,Min TemperatureF,Max Dew PointF,MeanDew PointF,Min DewpointF,Max Humidity, Mean Humidity, Min Humidity, Max Sea Level PressureIn, Mean Sea Level PressureIn, Min Sea Level PressureIn, Max VisibilityMiles, Mean VisibilityMiles, Min VisibilityMiles, Max Wind SpeedMPH, Mean Wind SpeedMPH, Max Gust SpeedMPH,PrecipitationIn, CloudCover, Events, WindDirDegrees
2011-12-1,41,34,28,28,25,21,86,71,60,30.45,30.15,29.88,10,10,10,33,13,41,0.00,3,,13
2011-12-2,33,24,15,23,16,9,80,69,63,30.51,30.31,30.09,10,10,10,21,8,23,0.00,2,,208
2011-12-3,39,36,30,37,31,27,100,89,80,30.12,29.96,29.86,10,7,1,22,13,29,0.77,8,,21
2011-12-4,37,29,21,28,23,18,86,79,60,30.23,30.18,30.14,10,10,10,12,7,,0.00,2,,290
2011-12-5,24,20,17,19,12,7,80,69,63,30.51,30.43,30.34,10,10,10,24,18,33,0.00,7,,3
2011-12-6,26,18,10,14,9,5,85,70,51,30.44,30.32,30.22,10,10,10,15,9,,0.00,2,,324
2011-12-7,44,30,15,27,19,9,93,70,46,30.20,30.14,30.11,10,10,10,13,8,,0.00,0,,280
2011-12-8,41,30,19,30,23,16,93,80,61,30.21,30.15,30.10,10,10,5,14,4,,0.00,1,,39
2011-12-9,30,28,26,27,24,21,93,84,74,30.42,30.33,30.24,10,7,2,14,8,,0.00,8,,8
2011-12-10,,,,,,,,,,,,,,,,,,,,,,
2011-12-11,,,,,,,,,,,,,,,,,,,,,,
2011-12-12,42,40,39,37,36,36,93,86,81,30.20,30.19,30.17,10,9,5,12,8,,0.00,7,,155
2011-12-13,41,39,37,39,38,36,93,92,87,30.21,30.14,30.03,5,3,1,17,11,22,0.03,8,,166
2011-12-14,55,47,37,48,43,34,100,86,72,29.97,29.82,29.73,10,8,1,22,10,29,0.09,4,,227
2011-12-15,42,33,24,28,23,19,86,67,42,30.37,30.25,30.04,10,10,6,18,8,,0.00,0,,347
2011-12-16,46,34,21,28,23,18,86,71,46,30.42,30.37,30.31,10,10,10,17,6,21,0.00,1,,202
2011-12-17,55,40,24,32,26,19,86,68,36,30.43,30.37,30.32,10,10,10,16,7,,0.00,0,,257
2011-12-18,62,45,28,45,35,21,87,73,52,30.29,30.05,29.88,10,10,10,22,9,28,0.00,0,,201
2011-12-19,42,37,32,39,34,28,93,87,75,30.02,29.93,29.84,10,8,2,31,12,40,0.31,7,,57
2011-12-20,30,22,15,27,22,10,93,84,68,30.01,29.94,29.85,10,6,1,24,16,31,0.03,6,,17
2011-12-21,32,24,15,27,17,10,86,80,74,29.88,29.80,29.75,10,10,2,8,4,,0.01,0,,352
2011-12-22,33,24,14,28,20,9,93,79,69,30.45,30.24,29.94,10,9,2,29,15,39,0.00,5,,6
2011-12-23,28,16,3,19,9,-2,85,75,68,30.46,30.40,30.31,10,10,10,14,9,18,0.00,0,,257
2011-12-24,32,21,10,25,15,5,86,75,64,30.42,30.36,30.32,10,10,10,12,8,,0.00,0,,259
2011-12-25,35,26,17,27,18,10,86,75,68,30.49,30.41,30.37,10,10,10,14,9,,0.00,0,,307
2011-12-26,37,26,15,34,25,10,93,83,74,30.30,30.09,29.94,10,10,10,16,6,20,0.00,3,,229
2011-12-27,39,31,23,28,23,16,86,69,60,30.22,30.13,30.06,10,10,10,15,11,,0.00,0,,281
2011-12-28,41,31,21,32,25,18,86,76,65,30.05,30.00,29.94,10,10,10,13,7,,0.00,0,,258
2011-12-29,48,39,30,39,31,25,81,74,66,29.90,29.78,29.62,10,10,10,15,8,26,0.00,1,,253
2011-12-30,48,40,33,34,30,25,81,69,54,30.02,29.93,29.83,10,10,10,16,10,,0.00,0,,253
2011-12-31,57,46,35,39,30,27,81,61,33,30.07,29.73,29.56,10,10,3,34,14,50,0.00,2,,247